Hakon Mosby — LJIT — position and weather

sailwx.info

Track history (hours):
 
Tides and Currents Weather Stations Pressure Air Temp Water Temp Dewpoint Dewpoint Depression Visibility Wind Speed Wind Dir Waves Ship Positions

Oceanographic research ship Hakon Mosby (Norway)

Detailed information on ship capabilities available from University of Delaware's Ocean Information Center and ARCUS's ALIAS (Arctic Logistics Information and Support) project.

Last reported at 2020-Aug-13 10:00 UTC. Time now 2020-Aug-13 12:03 UTC.
Position N 57°26' E 010°33'.

Type: Other ship. MMSI: 258244000.

Date/timePositionNaut miles runAvg speedWind from/ knotsBaromVisibWave heightAir tempDewpointWater temp
2020-Aug-13 10:00N 57°26' E 010°33'0 0.0
2020-Aug-13 08:25N 57°26' E 010°33'0 0.0
2020-Aug-13 07:30N 57°26' E 010°33'0 0.0
2020-Aug-13 06:30N 57°26' E 010°33'0 0.0
2020-Aug-13 06:00N 57°26' E 010°33'0 0.0
2020-Aug-13 05:00N 57°26' E 010°33'0 0.0
2020-Aug-13 03:00N 57°26' E 010°33'0 0.0
2020-Aug-13 02:30N 57°26' E 010°33'0 0.0
2020-Aug-13 00:29N 57°26' E 010°33'0 0.0
2020-Aug-12 21:30N 57°26' E 010°33'0 0.0
2020-Aug-12 21:00N 57°26' E 010°33'0 0.0
2020-Aug-12 20:30N 57°26' E 010°33'0 0.0
2020-Aug-12 17:00N 57°26' E 010°33'0 0.0
2020-Aug-12 15:00N 57°26' E 010°33'0 0.0
2020-Aug-12 14:00N 57°26' E 010°33'0 0.0
2020-Aug-12 12:30N 57°26' E 010°33'0 0.0
2020-Aug-12 10:30N 57°26' E 010°33'0 0.0
2020-Aug-12 10:00N 57°26' E 010°33'0 0.0
2020-Aug-12 08:00N 57°26' E 010°33'0 0.0
2020-Aug-12 06:30N 57°26' E 010°33'16 4.6
2020-Aug-12 03:00N 57°35' E 010°58'3 6.3
2020-Aug-12 02:30N 57°38' E 010°59'29 5.3
2020-Aug-11 20:59N 57°49' E 010°08'7 6.8
2020-Aug-11 19:59N 57°49' E 009°55'19 7.7
2020-Aug-11 17:30N 57°50' E 009°19'40 8.9
2020-Aug-11 13:00N 57°51' E 008°04'11 7.1
2020-Aug-11 11:30N 57°51' E 007°44'10 6.7
2020-Aug-11 10:00N 57°52' E 007°25'3 6.4
2020-Aug-11 09:30N 57°52' E 007°19'17 6.8
2020-Aug-11 07:00N 57°54' E 006°47'8 8.0
2020-Aug-11 06:00N 57°59' E 006°35'10 9.8
2020-Aug-11 05:00N 58°04' E 006°20'39 9.9
2020-Aug-11 01:00N 58°32' E 005°26'1110.9
2020-Aug-11 00:00N 58°42' E 005°17'2610.3
2020-Aug-10 21:30N 59°06' E 005°02'3810.9
2020-Aug-10 18:00N 59°44' E 004°55'42 7.6
2020-Aug-10 12:30N 60°24' E 005°19'0 0.0
2020-Aug-10 09:00N 60°24' E 005°19'0 0.0
2020-Aug-10 08:30N 60°24' E 005°19'0 0.0
2020-Aug-10 00:30N 60°24' E 005°19'0 0.0
2020-Aug-09 23:29N 60°24' E 005°19'0 0.0
2020-Aug-09 20:00N 60°24' E 005°19'0 0.0
2020-Aug-09 18:30N 60°24' E 005°19'0 0.0
2020-Aug-09 16:30N 60°24' E 005°19'0 0.0
2020-Aug-09 15:00N 60°24' E 005°19'0 0.0
2020-Aug-09 12:30N 60°24' E 005°19'0 0.0
2020-Aug-09 11:00N 60°24' E 005°19'0 0.0
2020-Aug-09 09:28N 60°24' E 005°19'0 0.0
2020-Aug-09 07:29N 60°24' E 005°19'0 0.0
2020-Aug-09 07:00N 60°24' E 005°19'0 0.0
2020-Aug-09 05:30N 60°24' E 005°19'0 0.0
2020-Aug-09 04:30N 60°24' E 005°19'0 0.0
2020-Aug-08 23:30N 60°24' E 005°19'0 0.0
2020-Aug-08 22:30N 60°24' E 005°19'0 0.0
2020-Aug-08 21:30N 60°24' E 005°19'0 0.0
2020-Aug-08 17:30N 60°24' E 005°19'0 0.0
2020-Aug-08 14:30N 60°24' E 005°19'0 0.0
2020-Aug-08 12:59N 60°24' E 005°19'0 0.0
2020-Aug-08 11:30N 60°24' E 005°19'0 0.0
2020-Aug-08 11:00N 60°24' E 005°19'0 0.0
2020-Aug-08 09:30N 60°24' E 005°19'0 0.0
2020-Aug-08 09:00N 60°24' E 005°19'0 0.0
2020-Aug-08 07:59N 60°24' E 005°19'0 0.0
2020-Aug-08 04:59N 60°24' E 005°19'0 0.0
2020-Aug-08 04:00N 60°24' E 005°19'0 0.0
2020-Aug-08 03:28N 60°24' E 005°19'0 0.0
2020-Aug-08 03:00N 60°24' E 005°19'0 0.0
2020-Aug-08 01:00N 60°24' E 005°19'0 0.0
2020-Aug-08 00:00N 60°24' E 005°19'0 0.0
2020-Aug-07 22:00N 60°24' E 005°19'0 0.0
2020-Aug-07 19:30N 60°24' E 005°19'0 0.0
2020-Aug-07 17:30N 60°24' E 005°19'0 0.0
2020-Aug-07 16:30N 60°24' E 005°19'0 0.0
2020-Aug-07 14:00N 60°24' E 005°19'0 0.0
2020-Aug-07 13:00N 60°24' E 005°19'0 0.0
2020-Aug-07 12:30N 60°24' E 005°19'0 0.0
2020-Aug-07 10:29N 60°24' E 005°19'0 0.0
2020-Aug-07 10:00N 60°24' E 005°19'0 0.0
2020-Aug-07 06:30N 60°24' E 005°19'0 0.0
2020-Aug-07 04:59N 60°24' E 005°19'0 0.0
2020-Aug-07 04:30N 60°24' E 005°19'0 0.0
2020-Aug-07 04:00N 60°24' E 005°19'0 0.0
2020-Aug-07 03:30N 60°24' E 005°19'0 0.0
2020-Aug-07 01:00N 60°24' E 005°19'0 0.0
2020-Aug-06 23:30N 60°24' E 005°19'0 0.0
2020-Aug-06 21:30N 60°24' E 005°19'0 0.0
2020-Aug-06 20:00N 60°24' E 005°19'0 0.0
2020-Aug-06 16:00N 60°24' E 005°19'0 0.0
2020-Aug-06 13:30N 60°24' E 005°19'0 0.0
2020-Aug-06 06:00N 60°24' E 005°19'0 0.0
2020-Aug-06 05:30N 60°24' E 005°19'0 0.0
2020-Aug-06 04:30N 60°24' E 005°19'0 0.0
2020-Aug-06 04:00N 60°24' E 005°19'0 0.0
2020-Aug-06 02:00N 60°24' E 005°19'0 0.0
2020-Aug-06 01:30N 60°24' E 005°19'0 0.0
2020-Aug-05 22:30N 60°24' E 005°19'0 0.0
2020-Aug-05 20:00N 60°24' E 005°19'0 0.0
2020-Aug-05 19:31N 60°24' E 005°19'0 0.0
2020-Aug-05 17:30N 60°24' E 005°19'0 0.0
2020-Aug-05 14:01N 60°24' E 005°19'0 0.0
2020-Aug-05 13:01N 60°24' E 005°19'0 0.0
2020-Aug-05 12:30N 60°24' E 005°19'0 0.0
2020-Aug-05 09:30N 60°24' E 005°19'0 0.0
2020-Aug-05 06:30N 60°24' E 005°19'0 0.0
2020-Aug-05 04:30N 60°24' E 005°19'0 0.0
2020-Aug-05 00:30N 60°24' E 005°19'0 0.0
2020-Aug-04 22:31N 60°24' E 005°19'0 0.0
2020-Aug-04 21:00N 60°24' E 005°19'0 0.0
2020-Aug-04 20:00N 60°24' E 005°19'0 0.0
2020-Aug-04 17:00N 60°24' E 005°19'0 0.0
2020-Aug-04 11:00N 60°24' E 005°19'0 0.0
2020-Aug-04 09:30N 60°24' E 005°19'0 0.0
2020-Aug-04 09:00N 60°24' E 005°19'0 0.0
2020-Aug-04 08:30N 60°24' E 005°19'0 0.0
2020-Aug-04 05:01N 60°24' E 005°19'0 0.0
2020-Aug-04 04:01N 60°24' E 005°19'0 0.0
2020-Aug-04 03:00N 60°24' E 005°19'0 0.0
2020-Aug-03 22:31N 60°24' E 005°19'0 0.0
2020-Aug-03 17:30N 60°24' E 005°19'0 0.0
2020-Aug-03 16:30N 60°24' E 005°19'0 0.0
2020-Aug-03 15:31N 60°24' E 005°19'0 0.0
2020-Aug-03 13:01N 60°24' E 005°19'0 0.0
2020-Aug-03 11:00N 60°24' E 005°19'  
Track history (hours):
 
Tides and Currents Weather Stations Pressure Air Temp Water Temp Dewpoint Dewpoint Depression Visibility Wind Speed Wind Dir Waves Ship Positions

Oceanographic research ship Hakon Mosby (Norway)

Detailed information on ship capabilities available from University of Delaware's Ocean Information Center and ARCUS's ALIAS (Arctic Logistics Information and Support) project.

Last reported at 2020-Aug-13 10:00 UTC. Time now 2020-Aug-13 12:03 UTC.
Position N 57°26' E 010°33'.

Type: Other ship. MMSI: 258244000.

Date/timePositionNaut miles runAvg speedWind from/ knotsBaromVisibWave heightAir tempDewpointWater temp
2020-Aug-13 10:00N 57°26' E 010°33'0 0.0
2020-Aug-13 08:25N 57°26' E 010°33'0 0.0
2020-Aug-13 07:30N 57°26' E 010°33'0 0.0
2020-Aug-13 06:30N 57°26' E 010°33'0 0.0
2020-Aug-13 06:00N 57°26' E 010°33'0 0.0
2020-Aug-13 05:00N 57°26' E 010°33'0 0.0
2020-Aug-13 03:00N 57°26' E 010°33'0 0.0
2020-Aug-13 02:30N 57°26' E 010°33'0 0.0
2020-Aug-13 00:29N 57°26' E 010°33'0 0.0
2020-Aug-12 21:30N 57°26' E 010°33'0 0.0
2020-Aug-12 21:00N 57°26' E 010°33'0 0.0
2020-Aug-12 20:30N 57°26' E 010°33'0 0.0
2020-Aug-12 17:00N 57°26' E 010°33'0 0.0
2020-Aug-12 15:00N 57°26' E 010°33'0 0.0
2020-Aug-12 14:00N 57°26' E 010°33'0 0.0
2020-Aug-12 12:30N 57°26' E 010°33'0 0.0
2020-Aug-12 10:30N 57°26' E 010°33'0 0.0
2020-Aug-12 10:00N 57°26' E 010°33'0 0.0
2020-Aug-12 08:00N 57°26' E 010°33'0 0.0
2020-Aug-12 06:30N 57°26' E 010°33'16 4.6
2020-Aug-12 03:00N 57°35' E 010°58'3 6.3
2020-Aug-12 02:30N 57°38' E 010°59'29 5.3
2020-Aug-11 20:59N 57°49' E 010°08'7 6.8
2020-Aug-11 19:59N 57°49' E 009°55'19 7.7
2020-Aug-11 17:30N 57°50' E 009°19'40 8.9
2020-Aug-11 13:00N 57°51' E 008°04'11 7.1
2020-Aug-11 11:30N 57°51' E 007°44'10 6.7
2020-Aug-11 10:00N 57°52' E 007°25'3 6.4
2020-Aug-11 09:30N 57°52' E 007°19'17 6.8
2020-Aug-11 07:00N 57°54' E 006°47'8 8.0
2020-Aug-11 06:00N 57°59' E 006°35'10 9.8
2020-Aug-11 05:00N 58°04' E 006°20'39 9.9
2020-Aug-11 01:00N 58°32' E 005°26'1110.9
2020-Aug-11 00:00N 58°42' E 005°17'2610.3
2020-Aug-10 21:30N 59°06' E 005°02'3810.9
2020-Aug-10 18:00N 59°44' E 004°55'42 7.6
2020-Aug-10 12:30N 60°24' E 005°19'0 0.0
2020-Aug-10 09:00N 60°24' E 005°19'0 0.0
2020-Aug-10 08:30N 60°24' E 005°19'0 0.0
2020-Aug-10 00:30N 60°24' E 005°19'0 0.0
2020-Aug-09 23:29N 60°24' E 005°19'0 0.0
2020-Aug-09 20:00N 60°24' E 005°19'0 0.0
2020-Aug-09 18:30N 60°24' E 005°19'0 0.0
2020-Aug-09 16:30N 60°24' E 005°19'0 0.0
2020-Aug-09 15:00N 60°24' E 005°19'0 0.0
2020-Aug-09 12:30N 60°24' E 005°19'0 0.0
2020-Aug-09 11:00N 60°24' E 005°19'0 0.0
2020-Aug-09 09:28N 60°24' E 005°19'0 0.0
2020-Aug-09 07:29N 60°24' E 005°19'0 0.0
2020-Aug-09 07:00N 60°24' E 005°19'0 0.0
2020-Aug-09 05:30N 60°24' E 005°19'0 0.0
2020-Aug-09 04:30N 60°24' E 005°19'0 0.0
2020-Aug-08 23:30N 60°24' E 005°19'0 0.0
2020-Aug-08 22:30N 60°24' E 005°19'0 0.0
2020-Aug-08 21:30N 60°24' E 005°19'0 0.0
2020-Aug-08 17:30N 60°24' E 005°19'0 0.0
2020-Aug-08 14:30N 60°24' E 005°19'0 0.0
2020-Aug-08 12:59N 60°24' E 005°19'0 0.0
2020-Aug-08 11:30N 60°24' E 005°19'0 0.0
2020-Aug-08 11:00N 60°24' E 005°19'0 0.0
2020-Aug-08 09:30N 60°24' E 005°19'0 0.0
2020-Aug-08 09:00N 60°24' E 005°19'0 0.0
2020-Aug-08 07:59N 60°24' E 005°19'0 0.0
2020-Aug-08 04:59N 60°24' E 005°19'0 0.0
2020-Aug-08 04:00N 60°24' E 005°19'0 0.0
2020-Aug-08 03:28N 60°24' E 005°19'0 0.0
2020-Aug-08 03:00N 60°24' E 005°19'0 0.0
2020-Aug-08 01:00N 60°24' E 005°19'0 0.0
2020-Aug-08 00:00N 60°24' E 005°19'0 0.0
2020-Aug-07 22:00N 60°24' E 005°19'0 0.0
2020-Aug-07 19:30N 60°24' E 005°19'0 0.0
2020-Aug-07 17:30N 60°24' E 005°19'0 0.0
2020-Aug-07 16:30N 60°24' E 005°19'0 0.0
2020-Aug-07 14:00N 60°24' E 005°19'0 0.0
2020-Aug-07 13:00N 60°24' E 005°19'0 0.0
2020-Aug-07 12:30N 60°24' E 005°19'0 0.0
2020-Aug-07 10:29N 60°24' E 005°19'0 0.0
2020-Aug-07 10:00N 60°24' E 005°19'0 0.0
2020-Aug-07 06:30N 60°24' E 005°19'0 0.0
2020-Aug-07 04:59N 60°24' E 005°19'0 0.0
2020-Aug-07 04:30N 60°24' E 005°19'0 0.0
2020-Aug-07 04:00N 60°24' E 005°19'0 0.0
2020-Aug-07 03:30N 60°24' E 005°19'0 0.0
2020-Aug-07 01:00N 60°24' E 005°19'0 0.0
2020-Aug-06 23:30N 60°24' E 005°19'0 0.0
2020-Aug-06 21:30N 60°24' E 005°19'0 0.0
2020-Aug-06 20:00N 60°24' E 005°19'0 0.0
2020-Aug-06 16:00N 60°24' E 005°19'0 0.0
2020-Aug-06 13:30N 60°24' E 005°19'0 0.0
2020-Aug-06 06:00N 60°24' E 005°19'0 0.0
2020-Aug-06 05:30N 60°24' E 005°19'0 0.0
2020-Aug-06 04:30N 60°24' E 005°19'0 0.0
2020-Aug-06 04:00N 60°24' E 005°19'0 0.0
2020-Aug-06 02:00N 60°24' E 005°19'0 0.0
2020-Aug-06 01:30N 60°24' E 005°19'0 0.0
2020-Aug-05 22:30N 60°24' E 005°19'0 0.0
2020-Aug-05 20:00N 60°24' E 005°19'0 0.0
2020-Aug-05 19:31N 60°24' E 005°19'0 0.0
2020-Aug-05 17:30N 60°24' E 005°19'0 0.0
2020-Aug-05 14:01N 60°24' E 005°19'0 0.0
2020-Aug-05 13:01N 60°24' E 005°19'0 0.0
2020-Aug-05 12:30N 60°24' E 005°19'0 0.0
2020-Aug-05 09:30N 60°24' E 005°19'0 0.0
2020-Aug-05 06:30N 60°24' E 005°19'0 0.0
2020-Aug-05 04:30N 60°24' E 005°19'0 0.0
2020-Aug-05 00:30N 60°24' E 005°19'0 0.0
2020-Aug-04 22:31N 60°24' E 005°19'0 0.0
2020-Aug-04 21:00N 60°24' E 005°19'0 0.0
2020-Aug-04 20:00N 60°24' E 005°19'0 0.0
2020-Aug-04 17:00N 60°24' E 005°19'0 0.0
2020-Aug-04 11:00N 60°24' E 005°19'0 0.0
2020-Aug-04 09:30N 60°24' E 005°19'0 0.0
2020-Aug-04 09:00N 60°24' E 005°19'0 0.0
2020-Aug-04 08:30N 60°24' E 005°19'0 0.0
2020-Aug-04 05:01N 60°24' E 005°19'0 0.0
2020-Aug-04 04:01N 60°24' E 005°19'0 0.0
2020-Aug-04 03:00N 60°24' E 005°19'0 0.0
2020-Aug-03 22:31N 60°24' E 005°19'0 0.0
2020-Aug-03 17:30N 60°24' E 005°19'0 0.0
2020-Aug-03 16:30N 60°24' E 005°19'0 0.0
2020-Aug-03 15:31N 60°24' E 005°19'0 0.0
2020-Aug-03 13:01N 60°24' E 005°19'0 0.0
2020-Aug-03 11:00N 60°24' E 005°19'  

Dump ship's entire track history